createdAt,value
2018-07-12T00:04:27.293Z,51.80
2018-07-12T00:09:30.074Z,52.00
2018-07-12T00:14:32.488Z,52.20
2018-07-12T00:19:34.885Z,52.00
2018-07-12T00:24:37.282Z,51.90
2018-07-12T00:29:39.703Z,52.10
2018-07-12T00:34:42.100Z,52.80
2018-07-12T00:39:44.779Z,52.90
2018-07-12T00:44:47.169Z,53.30
2018-07-12T00:49:49.556Z,53.60
2018-07-12T00:54:51.933Z,53.90
2018-07-12T00:59:55.052Z,53.90
2018-07-12T01:04:57.785Z,54.00
2018-07-12T01:10:00.460Z,54.20
2018-07-12T01:20:05.532Z,53.70
2018-07-12T01:25:07.998Z,54.30
2018-07-12T01:30:10.868Z,54.80
2018-07-12T01:35:13.932Z,55.10
2018-07-12T01:40:16.976Z,55.40
2018-07-12T01:45:19.376Z,55.60
2018-07-12T01:55:24.935Z,56.20
2018-07-12T02:00:27.361Z,56.40
2018-07-12T02:05:30.347Z,56.70
2018-07-12T02:10:33.008Z,56.90
2018-07-12T02:15:35.385Z,56.90
2018-07-12T02:20:37.760Z,56.20
2018-07-12T02:25:41.214Z,56.10
2018-07-12T02:30:44.417Z,55.30
2018-07-12T02:35:46.821Z,55.10
2018-07-12T02:40:49.223Z,55.70
2018-07-12T02:45:51.640Z,56.30
2018-07-12T02:50:56.020Z,56.30
2018-07-12T02:55:58.444Z,56.20
2018-07-12T03:01:00.853Z,56.00
2018-07-12T03:06:04.321Z,55.80
2018-07-12T03:11:07.437Z,55.80
2018-07-12T03:16:09.831Z,55.70
2018-07-12T03:21:12.201Z,55.90
2018-07-12T03:26:15.159Z,55.80
2018-07-12T03:31:17.604Z,55.60
2018-07-12T03:36:20.173Z,55.80
2018-07-12T03:41:23.676Z,56.40
2018-07-12T03:46:26.260Z,56.90
2018-07-12T03:51:28.952Z,56.90
2018-07-12T03:56:31.449Z,56.90
2018-07-12T04:01:33.945Z,57.20
2018-07-12T04:06:36.615Z,57.40
2018-07-12T04:11:39.012Z,57.30
2018-07-12T04:16:41.661Z,57.80
2018-07-12T04:21:44.794Z,57.30
2018-07-12T04:26:47.212Z,57.20
2018-07-12T04:31:49.620Z,57.20
2018-07-12T04:36:52.401Z,57.30
2018-07-12T04:41:55.070Z,57.60
2018-07-12T04:46:57.464Z,58.70
2018-07-12T04:52:00.608Z,58.70
2018-07-12T04:57:03.017Z,58.40
2018-07-12T05:02:05.404Z,58.30
2018-07-12T05:07:08.463Z,58.10
2018-07-12T05:12:10.833Z,58.20
2018-07-12T05:17:13.204Z,58.30
2018-07-12T05:22:16.239Z,58.60
2018-07-12T05:27:18.648Z,58.30
2018-07-12T05:32:23.985Z,58.50
2018-07-12T05:37:27.553Z,58.60
2018-07-12T05:42:31.108Z,58.50
2018-07-12T05:47:34.664Z,58.60
2018-07-12T05:52:38.221Z,58.40
2018-07-12T05:57:42.383Z,58.20
2018-07-12T06:02:46.043Z,57.70
2018-07-12T06:07:49.589Z,57.80
2018-07-12T06:12:53.172Z,57.10
2018-07-12T06:17:56.968Z,57.60
2018-07-12T06:23:00.633Z,56.10
2018-07-12T06:28:06.348Z,54.90
2018-07-12T06:33:09.925Z,54.00
2018-07-12T06:38:13.555Z,52.80
2018-07-12T06:43:17.381Z,52.60
2018-07-12T06:48:20.899Z,53.40
2018-07-12T06:53:25.276Z,54.50
2018-07-12T06:58:29.182Z,55.10
2018-07-12T07:03:33.116Z,55.10
2018-07-12T07:08:36.832Z,54.30
2018-07-12T07:13:40.422Z,53.80
2018-07-12T07:18:43.970Z,53.80
2018-07-12T07:23:48.259Z,53.40
2018-07-12T07:28:51.945Z,52.70
2018-07-12T07:33:55.480Z,52.80
2018-07-12T07:38:59.054Z,52.20
2018-07-12T07:44:02.569Z,51.20
2018-07-12T07:49:06.192Z,49.90
2018-07-12T07:54:09.703Z,51.10
2018-07-12T07:59:13.270Z,50.10
2018-07-12T08:04:16.841Z,49.90
2018-07-12T08:09:20.748Z,48.80
2018-07-12T08:14:24.577Z,48.60
2018-07-12T08:19:28.105Z,49.10
2018-07-12T08:24:31.995Z,48.60
2018-07-12T08:29:36.026Z,48.30
2018-07-12T08:34:39.611Z,48.20
2018-07-12T08:39:43.185Z,47.50
2018-07-12T08:44:46.876Z,46.60
2018-07-12T08:49:55.472Z,47.50
2018-07-12T08:54:59.279Z,46.90
2018-07-12T09:00:04.147Z,46.80
2018-07-12T09:05:08.067Z,45.30
2018-07-12T09:10:17.358Z,44.60
2018-07-12T09:15:20.940Z,43.70
2018-07-12T09:20:28.220Z,42.90
2018-07-12T09:25:31.810Z,43.00
2018-07-12T09:30:35.607Z,41.80
2018-07-12T09:35:39.134Z,41.70
2018-07-12T09:40:42.698Z,40.60
2018-07-12T09:45:46.262Z,41.30
2018-07-12T09:50:53.658Z,40.50
2018-07-12T09:55:57.241Z,40.00
2018-07-12T10:01:06.102Z,39.10
2018-07-12T10:06:14.934Z,39.40
2018-07-12T10:11:23.767Z,37.40
2018-07-12T10:16:32.683Z,36.60
2018-07-12T10:21:36.231Z,36.60
2018-07-12T10:26:40.069Z,35.60
2018-07-12T10:31:43.654Z,34.70
2018-07-12T10:36:47.170Z,34.70
2018-07-12T10:41:50.733Z,33.80
2018-07-12T10:46:54.682Z,34.20
2018-07-12T10:51:58.276Z,33.90
2018-07-12T10:57:02.672Z,33.50
2018-07-12T11:02:06.296Z,33.60
2018-07-12T11:07:11.968Z,34.30
2018-07-12T11:12:15.593Z,33.60
2018-07-12T11:17:19.146Z,33.50
2018-07-12T11:22:23.621Z,33.50
2018-07-12T11:27:28.385Z,33.30
2018-07-12T11:32:31.936Z,34.00
2018-07-12T11:37:36.108Z,32.80
2018-07-12T11:42:42.301Z,33.80
2018-07-12T11:47:45.872Z,33.80
2018-07-12T11:52:49.447Z,34.40
2018-07-12T11:57:53.051Z,33.50
2018-07-12T12:02:56.592Z,34.10
2018-07-12T12:08:00.130Z,33.30
2018-07-12T12:13:03.749Z,34.00
2018-07-12T12:18:07.588Z,34.00
2018-07-12T12:23:11.140Z,33.70
2018-07-12T12:28:14.662Z,33.60
2018-07-12T12:33:18.544Z,34.40
2018-07-12T12:38:22.886Z,34.10
2018-07-12T12:43:26.457Z,34.00
2018-07-12T12:48:30.052Z,34.20
2018-07-12T12:53:33.630Z,33.20
2018-07-12T12:58:37.193Z,32.90
2018-07-12T13:03:40.751Z,32.80
2018-07-12T13:08:44.287Z,32.70
2018-07-12T13:13:48.041Z,32.70
2018-07-12T13:18:51.584Z,32.10
2018-07-12T13:23:55.169Z,32.50
2018-07-12T13:28:58.687Z,31.90
2018-07-12T13:34:02.476Z,32.70
2018-07-12T13:39:07.823Z,32.00
2018-07-12T13:44:19.601Z,31.50
2018-07-12T13:49:23.168Z,32.10
2018-07-12T13:54:26.729Z,31.00
2018-07-12T14:04:33.485Z,30.20
2018-07-12T14:09:37.016Z,29.70
2018-07-12T14:14:40.557Z,29.40
2018-07-12T14:19:44.128Z,29.00
2018-07-12T14:24:47.954Z,28.70
2018-07-12T14:29:51.566Z,29.30
2018-07-12T14:34:55.619Z,29.30
2018-07-12T14:45:02.363Z,28.80
2018-07-12T14:50:06.292Z,28.80
2018-07-12T14:55:09.955Z,28.10
2018-07-12T15:00:14.012Z,28.60
2018-07-12T15:05:17.566Z,27.40
2018-07-12T15:10:21.179Z,28.00
2018-07-12T15:15:24.961Z,28.50
2018-07-12T15:20:28.733Z,28.50
2018-07-12T15:25:32.345Z,28.80
2018-07-12T15:30:35.935Z,28.90
2018-07-12T15:35:39.779Z,29.20
2018-07-12T15:40:43.269Z,29.50
2018-07-12T15:45:47.068Z,29.80
2018-07-12T15:50:51.145Z,29.70
2018-07-12T15:55:54.845Z,29.60
2018-07-12T16:00:58.380Z,29.80
2018-07-12T16:06:02.178Z,29.90
2018-07-12T16:11:05.746Z,30.00
2018-07-12T16:16:09.339Z,30.10
2018-07-12T16:21:13.117Z,30.40
2018-07-12T16:26:16.643Z,29.90
2018-07-12T16:31:21.097Z,29.50
2018-07-12T16:36:24.669Z,29.00
2018-07-12T16:41:28.210Z,28.40
2018-07-12T16:46:31.774Z,28.40
2018-07-12T16:51:35.296Z,28.30
2018-07-12T16:56:38.831Z,28.50
2018-07-12T17:01:42.352Z,29.10
2018-07-12T17:06:45.899Z,29.50
2018-07-12T17:11:49.420Z,30.20
2018-07-12T17:16:52.991Z,30.60
2018-07-12T17:21:56.788Z,30.90
2018-07-12T17:27:00.333Z,31.70
2018-07-12T17:32:03.880Z,32.70
2018-07-12T17:37:07.445Z,33.00
2018-07-12T17:42:10.974Z,32.40
2018-07-12T17:47:14.558Z,31.70
2018-07-12T17:52:18.112Z,32.10
2018-07-12T17:57:21.627Z,32.30
2018-07-12T18:02:25.127Z,33.50
2018-07-12T18:07:28.662Z,33.40
2018-07-12T18:12:32.186Z,33.70
2018-07-12T18:17:35.719Z,33.40
2018-07-12T18:22:39.700Z,33.70
2018-07-12T18:27:43.256Z,34.80
2018-07-12T18:32:47.153Z,35.20
2018-07-12T18:37:50.824Z,35.30
2018-07-12T18:42:54.380Z,35.70
2018-07-12T18:47:57.941Z,36.50
2018-07-12T18:53:01.472Z,37.30
2018-07-12T18:58:05.023Z,38.00
2018-07-12T19:03:08.588Z,37.70
2018-07-12T19:08:12.088Z,38.00
2018-07-12T19:13:15.651Z,39.40
2018-07-12T19:18:19.159Z,39.40
2018-07-12T19:23:22.686Z,39.90
2018-07-12T19:28:26.234Z,40.10
2018-07-12T19:33:29.864Z,40.50
2018-07-12T19:38:33.579Z,40.30
2018-07-12T19:43:37.614Z,40.00
2018-07-12T19:48:41.244Z,39.80
2018-07-12T19:58:48.013Z,40.50
2018-07-12T20:03:51.705Z,40.40
2018-07-12T20:08:55.551Z,41.00
2018-07-12T20:13:59.379Z,41.40
2018-07-12T20:19:02.920Z,42.00
2018-07-12T20:24:07.346Z,41.90
2018-07-12T20:29:12.735Z,41.90
2018-07-12T20:34:16.278Z,42.00
2018-07-12T20:39:19.824Z,42.50
2018-07-12T20:44:23.371Z,42.70
2018-07-12T20:49:26.856Z,42.80
2018-07-12T20:54:30.437Z,43.50
2018-07-12T20:59:34.196Z,43.70
2018-07-12T21:04:38.225Z,43.60
2018-07-12T21:09:41.747Z,43.40
2018-07-12T21:14:45.335Z,43.40
2018-07-12T21:19:48.984Z,44.00
2018-07-12T21:24:52.545Z,44.20
2018-07-12T21:29:56.074Z,44.90
2018-07-12T21:34:59.640Z,45.50
2018-07-12T21:40:03.464Z,45.90
2018-07-12T21:45:07.003Z,46.50
2018-07-12T21:50:10.820Z,46.50
2018-07-12T21:55:14.450Z,47.80
2018-07-12T22:00:17.955Z,47.70
2018-07-12T22:05:21.503Z,47.60
2018-07-12T22:10:25.032Z,47.70
2018-07-12T22:15:28.536Z,48.50
2018-07-12T22:20:32.363Z,48.80
2018-07-12T22:25:36.115Z,48.60
2018-07-12T22:30:39.933Z,49.70
2018-07-12T22:35:43.334Z,49.80
2018-07-12T22:40:46.877Z,50.00
2018-07-12T22:45:50.424Z,49.70
2018-07-12T22:50:57.976Z,50.20
2018-07-12T22:56:01.506Z,49.80
2018-07-12T23:01:05.040Z,50.00
2018-07-12T23:06:08.613Z,50.60
2018-07-12T23:11:12.771Z,50.80
2018-07-12T23:16:16.400Z,51.10
2018-07-12T23:21:20.299Z,51.00
2018-07-12T23:26:25.628Z,50.80
2018-07-12T23:31:29.226Z,51.10
2018-07-12T23:36:32.777Z,51.80
2018-07-12T23:41:36.325Z,52.00
2018-07-12T23:46:39.869Z,52.00
2018-07-12T23:51:43.456Z,52.30
2018-07-12T23:56:46.975Z,52.50
